sensor_id;sensor_type;location;lat;lon;timestamp;temperature;humidity
35085;SHT85;21267;51.032;6.998;2023-07-24T17:58:39;18.09;88.88
35085;SHT85;21267;51.032;6.998;2023-07-24T18:01:07;18.00;88.70
35085;SHT85;21267;51.032;6.998;2023-07-24T18:03:58;17.98;88.84
35085;SHT85;21267;51.032;6.998;2023-07-24T18:06:40;17.85;88.60
35085;SHT85;21267;51.032;6.998;2023-07-24T18:09:19;17.76;87.47
35085;SHT85;21267;51.032;6.998;2023-07-24T18:11:53;17.63;87.14
35085;SHT85;21267;51.032;6.998;2023-07-24T18:14:29;17.61;87.40
35085;SHT85;21267;51.032;6.998;2023-07-24T18:17:01;17.54;86.51
35085;SHT85;21267;51.032;6.998;2023-07-24T18:19:41;17.62;86.81
35085;SHT85;21267;51.032;6.998;2023-07-24T18:22:15;17.59;87.14
35085;SHT85;21267;51.032;6.998;2023-07-24T18:24:45;17.58;87.22
35085;SHT85;21267;51.032;6.998;2023-07-24T18:27:23;17.58;86.93
35085;SHT85;21267;51.032;6.998;2023-07-24T18:30:18;17.58;85.99
35085;SHT85;21267;51.032;6.998;2023-07-24T18:32:45;17.75;86.82
35085;SHT85;21267;51.032;6.998;2023-07-24T18:35:31;17.61;86.35
35085;SHT85;21267;51.032;6.998;2023-07-24T18:38:18;17.71;87.20
35085;SHT85;21267;51.032;6.998;2023-07-24T18:40:50;17.78;87.12
35085;SHT85;21267;51.032;6.998;2023-07-24T18:43:40;17.65;86.33
35085;SHT85;21267;51.032;6.998;2023-07-24T18:46:29;17.48;86.15
35085;SHT85;21267;51.032;6.998;2023-07-24T18:49:03;17.52;85.58
35085;SHT85;21267;51.032;6.998;2023-07-24T18:51:32;17.41;85.90
35085;SHT85;21267;51.032;6.998;2023-07-24T18:54:01;17.38;85.40
35085;SHT85;21267;51.032;6.998;2023-07-24T18:56:45;17.34;84.95
35085;SHT85;21267;51.032;6.998;2023-07-24T18:59:16;17.37;85.39
35085;SHT85;21267;51.032;6.998;2023-07-24T19:01:59;17.40;85.21
35085;SHT85;21267;51.032;6.998;2023-07-24T19:04:35;17.37;85.94
35085;SHT85;21267;51.032;6.998;2023-07-24T19:07:17;17.44;85.52
35085;SHT85;21267;51.032;6.998;2023-07-24T19:09:55;17.35;85.49
35085;SHT85;21267;51.032;6.998;2023-07-24T19:12:28;17.44;85.98
35085;SHT85;21267;51.032;6.998;2023-07-24T19:15:17;17.42;85.99
35085;SHT85;21267;51.032;6.998;2023-07-24T19:18:04;17.37;85.99
35085;SHT85;21267;51.032;6.998;2023-07-24T19:20:45;17.40;86.29
35085;SHT85;21267;51.032;6.998;2023-07-24T19:23:29;17.34;86.39
35085;SHT85;21267;51.032;6.998;2023-07-24T19:26:19;17.31;86.11
35085;SHT85;21267;51.032;6.998;2023-07-24T19:28:50;17.30;86.48
35085;SHT85;21267;51.032;6.998;2023-07-24T19:31:27;17.21;86.40
35085;SHT85;21267;51.032;6.998;2023-07-24T19:34:24;17.18;86.66
35085;SHT85;21267;51.032;6.998;2023-07-24T19:37:14;17.13;86.92
35085;SHT85;21267;51.032;6.998;2023-07-24T19:39:44;17.06;87.00
35085;SHT85;21267;51.032;6.998;2023-07-24T19:42:30;17.04;87.32
35085;SHT85;21267;51.032;6.998;2023-07-24T19:45:23;16.94;87.86
35085;SHT85;21267;51.032;6.998;2023-07-24T19:48:00;16.97;87.48
35085;SHT85;21267;51.032;6.998;2023-07-24T19:50:31;16.97;87.79
35085;SHT85;21267;51.032;6.998;2023-07-24T19:53:14;16.97;87.99
35085;SHT85;21267;51.032;6.998;2023-07-24T19:56:02;16.92;88.15
35085;SHT85;21267;51.032;6.998;2023-07-24T19:58:44;16.93;88.41
35085;SHT85;21267;51.032;6.998;2023-07-24T20:01:26;16.96;88.56
35085;SHT85;21267;51.032;6.998;2023-07-24T20:04:14;16.93;88.55
35085;SHT85;21267;51.032;6.998;2023-07-24T20:06:51;16.87;88.75
35085;SHT85;21267;51.032;6.998;2023-07-24T20:09:18;16.75;89.21
35085;SHT85;21267;51.032;6.998;2023-07-24T20:11:45;16.83;89.08
35085;SHT85;21267;51.032;6.998;2023-07-24T20:14:14;16.84;88.96
35085;SHT85;21267;51.032;6.998;2023-07-24T20:16:55;16.83;88.92
35085;SHT85;21267;51.032;6.998;2023-07-24T20:19:22;16.79;89.25
35085;SHT85;21267;51.032;6.998;2023-07-24T20:22:02;16.87;88.95
35085;SHT85;21267;51.032;6.998;2023-07-24T20:24:29;16.92;89.50
35085;SHT85;21267;51.032;6.998;2023-07-24T20:26:56;16.87;89.28
35085;SHT85;21267;51.032;6.998;2023-07-24T20:29:25;16.77;89.31
35085;SHT85;21267;51.032;6.998;2023-07-24T20:31:52;16.84;89.47
35085;SHT85;21267;51.032;6.998;2023-07-24T20:34:19;16.89;89.26
35085;SHT85;21267;51.032;6.998;2023-07-24T20:36:59;16.89;89.25
35085;SHT85;21267;51.032;6.998;2023-07-24T20:39:26;17.00;89.47
35085;SHT85;21267;51.032;6.998;2023-07-24T20:41:54;16.97;89.01
35085;SHT85;21267;51.032;6.998;2023-07-24T20:44:28;16.99;88.93
35085;SHT85;21267;51.032;6.998;2023-07-24T20:46:55;16.97;89.04
35085;SHT85;21267;51.032;6.998;2023-07-24T20:49:23;17.04;88.97
35085;SHT85;21267;51.032;6.998;2023-07-24T20:52:05;16.93;89.10
35085;SHT85;21267;51.032;6.998;2023-07-24T20:54:32;16.99;88.89
35085;SHT85;21267;51.032;6.998;2023-07-24T20:57:06;16.99;89.28
35085;SHT85;21267;51.032;6.998;2023-07-24T20:59:41;16.92;89.19
35085;SHT85;21267;51.032;6.998;2023-07-24T21:02:21;16.93;89.43
35085;SHT85;21267;51.032;6.998;2023-07-24T21:04:49;16.93;89.33
35085;SHT85;21267;51.032;6.998;2023-07-24T21:07:35;16.96;89.58
35085;SHT85;21267;51.032;6.998;2023-07-24T21:10:22;16.96;89.67
35085;SHT85;21267;51.032;6.998;2023-07-24T21:12:51;16.92;89.73
35085;SHT85;21267;51.032;6.998;2023-07-24T21:15:33;17.02;89.54
35085;SHT85;21267;51.032;6.998;2023-07-24T21:18:01;16.99;89.60
35085;SHT85;21267;51.032;6.998;2023-07-24T21:20:28;17.02;89.81
35085;SHT85;21267;51.032;6.998;2023-07-24T21:22:55;16.97;89.74
35085;SHT85;21267;51.032;6.998;2023-07-24T21:25:21;16.96;89.60
35085;SHT85;21267;51.032;6.998;2023-07-24T21:28:03;16.99;89.67
35085;SHT85;21267;51.032;6.998;2023-07-24T21:30:38;17.02;89.61
35085;SHT85;21267;51.032;6.998;2023-07-24T21:33:15;16.93;89.78
35085;SHT85;21267;51.032;6.998;2023-07-24T21:35:43;16.94;89.92
35085;SHT85;21267;51.032;6.998;2023-07-24T21:38:37;17.10;89.66
35085;SHT85;21267;51.032;6.998;2023-07-24T21:41:24;17.04;89.66
35085;SHT85;21267;51.032;6.998;2023-07-24T21:44:19;17.06;89.74
35085;SHT85;21267;51.032;6.998;2023-07-24T21:47:06;17.00;89.77
35085;SHT85;21267;51.032;6.998;2023-07-24T21:49:36;17.03;89.89
35085;SHT85;21267;51.032;6.998;2023-07-24T21:52:16;16.97;89.84
35085;SHT85;21267;51.032;6.998;2023-07-24T21:54:45;17.03;89.83
35085;SHT85;21267;51.032;6.998;2023-07-24T21:57:31;16.99;89.70
35085;SHT85;21267;51.032;6.998;2023-07-24T22:00:05;16.93;90.02
35085;SHT85;21267;51.032;6.998;2023-07-24T22:02:57;16.99;90.26
35085;SHT85;21267;51.032;6.998;2023-07-24T22:08:42;16.93;90.49
35085;SHT85;21267;51.032;6.998;2023-07-24T22:11:17;16.93;90.42
35085;SHT85;21267;51.032;6.998;2023-07-24T22:13:57;16.96;90.55
35085;SHT85;21267;51.032;6.998;2023-07-24T22:16:26;17.03;90.40
35085;SHT85;21267;51.032;6.998;2023-07-24T22:18:59;17.07;90.43
35085;SHT85;21267;51.032;6.998;2023-07-24T22:21:33;17.03;90.62
35085;SHT85;21267;51.032;6.998;2023-07-24T22:24:38;16.94;90.69
35085;SHT85;21267;51.032;6.998;2023-07-24T22:27:12;16.97;90.68
35085;SHT85;21267;51.032;6.998;2023-07-24T22:29:46;17.00;90.80
35085;SHT85;21267;51.032;6.998;2023-07-24T22:32:25;16.97;90.91
35085;SHT85;21267;51.032;6.998;2023-07-24T22:35:04;16.90;90.66
35085;SHT85;21267;51.032;6.998;2023-07-24T22:37:49;16.90;90.29
35085;SHT85;21267;51.032;6.998;2023-07-24T22:40:16;16.96;90.20
35085;SHT85;21267;51.032;6.998;2023-07-24T22:43:01;16.89;89.84
35085;SHT85;21267;51.032;6.998;2023-07-24T22:45:46;16.92;89.63
35085;SHT85;21267;51.032;6.998;2023-07-24T22:48:31;16.84;89.43
35085;SHT85;21267;51.032;6.998;2023-07-24T22:51:10;16.75;89.64
35085;SHT85;21267;51.032;6.998;2023-07-24T22:53:56;16.76;89.46
35085;SHT85;21267;51.032;6.998;2023-07-24T22:56:34;16.68;89.40
35085;SHT85;21267;51.032;6.998;2023-07-24T22:59:26;16.75;89.25
35085;SHT85;21267;51.032;6.998;2023-07-24T23:02:15;16.72;88.95
35085;SHT85;21267;51.032;6.998;2023-07-24T23:04:46;16.75;89.06
35085;SHT85;21267;51.032;6.998;2023-07-24T23:07:51;16.75;89.20
35085;SHT85;21267;51.032;6.998;2023-07-24T23:10:36;16.69;88.96
35085;SHT85;21267;51.032;6.998;2023-07-24T23:13:26;16.66;88.76
35085;SHT85;21267;51.032;6.998;2023-07-24T23:16:28;16.79;88.74
35085;SHT85;21267;51.032;6.998;2023-07-24T23:19:13;16.79;88.88
35085;SHT85;21267;51.032;6.998;2023-07-24T23:22:01;16.79;88.79
35085;SHT85;21267;51.032;6.998;2023-07-24T23:24:41;16.84;89.01
35085;SHT85;21267;51.032;6.998;2023-07-24T23:27:15;16.93;88.81
35085;SHT85;21267;51.032;6.998;2023-07-24T23:29:46;16.82;88.87
35085;SHT85;21267;51.032;6.998;2023-07-24T23:32:32;16.80;88.98
35085;SHT85;21267;51.032;6.998;2023-07-24T23:35:19;16.80;88.81
35085;SHT85;21267;51.032;6.998;2023-07-24T23:37:51;16.80;88.57
35085;SHT85;21267;51.032;6.998;2023-07-24T23:40:32;16.73;88.94
35085;SHT85;21267;51.032;6.998;2023-07-24T23:42:59;16.73;88.98
35085;SHT85;21267;51.032;6.998;2023-07-24T23:45:41;16.65;89.50
35085;SHT85;21267;51.032;6.998;2023-07-24T23:48:34;16.61;89.59
35085;SHT85;21267;51.032;6.998;2023-07-24T23:51:30;16.55;89.58
35085;SHT85;21267;51.032;6.998;2023-07-24T23:54:16;16.45;89.69
